Overview Statistics Trail Chart Weather Telemetry Raw packets
 

This is the latest recevied weather packets stored in our database for station/object OE6ATD-13. If no packets are shown the sender has not sent any weather packets the latest 10 day(s).

<< 54 55 56 57 58 >>
Time Temp. Humidity Pressure Rain* Wind** Luminosity Snow
1787865027 21.67° C 86% 1016.8 hPa 0 mm - 0 W/m² -
1787864423 21.67° C 85% 1016.7 hPa 0 mm - - -
1787863819 21.67° C 85% 1016.7 hPa 0 mm - - -
1787863230 21.67° C 84% 1016.7 hPa 0 mm - - -
1787862626 21.67° C 83% 1016.7 hPa 0 mm - - -
1787862022 22.22° C 82% 1016.8 hPa 0 mm - - -
1787861417 22.22° C 78% 1016.6 hPa 0 mm - - -
1787860828 22.78° C 77% 1016.6 hPa 0 mm - 0 W/m² -
1787860223 22.78° C 77% 1016.7 hPa 0 mm - 0 W/m² -
1787859619 22.78° C 77% 1016.6 hPa 0 mm - 0 W/m² -
1787859030 22.78° C 76% 1016.7 hPa 0 mm - 0 W/m² -
1787858426 23.33° C 75% 1016.5 hPa 0 mm - 0 W/m² -
1787857822 23.33° C 75% 1016.4 hPa 0 mm - 0 W/m² -
1787857221 23.33° C 74% 1016.3 hPa 0 mm - 0 W/m² -
1787856616 23.89° C 73% 1016.4 hPa 0 mm - 0 W/m² -
1787856028 23.89° C 72% 1016.3 hPa 0 mm - 0 W/m² -
1787855424 24.44° C 72% 1016.2 hPa 0 mm - 0 W/m² -
1787854819 24.44° C 70% 1016.2 hPa 0 mm - 0 W/m² -
1787854229 25° C 70% 1016.1 hPa 0 mm - 0 W/m² -
1787853625 25.56° C 68% 1015.9 hPa 0 mm - 0 W/m² -
1787853020 26.11° C 65% 1016 hPa 0 mm - 0 W/m² -
1787852416 26.67° C 64% 1016 hPa 0 mm - 3 W/m² -
1787851828 27.22° C 61% 1015.7 hPa 0 mm - 8 W/m² -
1787851223 27.78° C 58% 1015.6 hPa 0 mm - 15 W/m² -
1787850619 28.89° C 54% 1015.6 hPa 0 mm - 21 W/m² -

* Rain latest hour (hover to see other rain measurements)
** Current wind speed in m/s (hover to see current wind gust speed)